sensor_id;sensor_type;location;lat;lon;timestamp;P1;durP1;ratioP1;P2;durP2;ratioP2
19854;SDS011;10088;47.946;2.532;2023-03-01T00:01:45;14.00;;;8.53;;
19854;SDS011;10088;47.946;2.532;2023-03-01T00:04:11;12.97;;;9.30;;
19854;SDS011;10088;47.946;2.532;2023-03-01T00:06:36;15.53;;;10.07;;
19854;SDS011;10088;47.946;2.532;2023-03-01T00:09:02;16.73;;;10.50;;
19854;SDS011;10088;47.946;2.532;2023-03-01T00:11:28;20.43;;;11.93;;
19854;SDS011;10088;47.946;2.532;2023-03-01T00:13:55;19.30;;;12.03;;
19854;SDS011;10088;47.946;2.532;2023-03-01T00:16:22;17.03;;;12.03;;
19854;SDS011;10088;47.946;2.532;2023-03-01T00:18:48;17.27;;;11.47;;
19854;SDS011;10088;47.946;2.532;2023-03-01T00:21:13;14.23;;;9.10;;
19854;SDS011;10088;47.946;2.532;2023-03-01T00:23:39;12.03;;;8.73;;
19854;SDS011;10088;47.946;2.532;2023-03-01T00:26:10;12.27;;;8.60;;
19854;SDS011;10088;47.946;2.532;2023-03-01T00:28:36;13.47;;;8.47;;
19854;SDS011;10088;47.946;2.532;2023-03-01T00:31:08;14.57;;;9.90;;
19854;SDS011;10088;47.946;2.532;2023-03-01T00:33:34;10.53;;;8.20;;
19854;SDS011;10088;47.946;2.532;2023-03-01T00:36:00;11.57;;;7.93;;
19854;SDS011;10088;47.946;2.532;2023-03-01T00:38:25;10.40;;;7.90;;
19854;SDS011;10088;47.946;2.532;2023-03-01T00:40:50;10.00;;;7.57;;
19854;SDS011;10088;47.946;2.532;2023-03-01T00:43:16;13.17;;;8.70;;
19854;SDS011;10088;47.946;2.532;2023-03-01T00:45:41;10.87;;;7.70;;
19854;SDS011;10088;47.946;2.532;2023-03-01T00:48:06;9.03;;;7.60;;
19854;SDS011;10088;47.946;2.532;2023-03-01T00:50:32;11.23;;;7.77;;
19854;SDS011;10088;47.946;2.532;2023-03-01T00:52:57;10.13;;;7.97;;
19854;SDS011;10088;47.946;2.532;2023-03-01T00:55:22;11.33;;;7.73;;
19854;SDS011;10088;47.946;2.532;2023-03-01T00:57:48;11.20;;;8.07;;
19854;SDS011;10088;47.946;2.532;2023-03-01T01:00:13;11.70;;;7.93;;
19854;SDS011;10088;47.946;2.532;2023-03-01T01:02:39;11.67;;;7.63;;
19854;SDS011;10088;47.946;2.532;2023-03-01T01:05:04;11.93;;;7.53;;
19854;SDS011;10088;47.946;2.532;2023-03-01T01:07:29;13.07;;;8.30;;
19854;SDS011;10088;47.946;2.532;2023-03-01T01:09:55;10.10;;;7.50;;
19854;SDS011;10088;47.946;2.532;2023-03-01T01:12:20;11.77;;;7.50;;
19854;SDS011;10088;47.946;2.532;2023-03-01T01:14:45;8.90;;;7.00;;
19854;SDS011;10088;47.946;2.532;2023-03-01T01:17:11;11.50;;;7.17;;
19854;SDS011;10088;47.946;2.532;2023-03-01T01:19:36;9.17;;;7.27;;
19854;SDS011;10088;47.946;2.532;2023-03-01T01:22:01;9.20;;;7.53;;
19854;SDS011;10088;47.946;2.532;2023-03-01T01:24:28;9.77;;;7.40;;
19854;SDS011;10088;47.946;2.532;2023-03-01T01:26:53;9.77;;;7.20;;
19854;SDS011;10088;47.946;2.532;2023-03-01T01:29:18;10.07;;;7.27;;
19854;SDS011;10088;47.946;2.532;2023-03-01T01:31:44;8.77;;;6.90;;
19854;SDS011;10088;47.946;2.532;2023-03-01T01:34:14;10.43;;;7.07;;
19854;SDS011;10088;47.946;2.532;2023-03-01T01:36:40;11.37;;;8.03;;
19854;SDS011;10088;47.946;2.532;2023-03-01T01:39:05;11.07;;;7.27;;
19854;SDS011;10088;47.946;2.532;2023-03-01T01:41:31;11.03;;;7.30;;
19854;SDS011;10088;47.946;2.532;2023-03-01T01:44:13;10.23;;;7.27;;
19854;SDS011;10088;47.946;2.532;2023-03-01T01:49:16;10.50;;;8.40;;
19854;SDS011;10088;47.946;2.532;2023-03-01T01:51:43;10.53;;;7.80;;
19854;SDS011;10088;47.946;2.532;2023-03-01T01:54:10;10.17;;;7.63;;
19854;SDS011;10088;47.946;2.532;2023-03-01T01:56:37;9.47;;;7.00;;
19854;SDS011;10088;47.946;2.532;2023-03-01T01:59:03;9.70;;;6.90;;
19854;SDS011;10088;47.946;2.532;2023-03-01T02:01:29;10.23;;;7.47;;
19854;SDS011;10088;47.946;2.532;2023-03-01T02:03:54;13.33;;;7.30;;
19854;SDS011;10088;47.946;2.532;2023-03-01T02:06:29;8.73;;;6.67;;
19854;SDS011;10088;47.946;2.532;2023-03-01T02:09:00;10.63;;;7.17;;
19854;SDS011;10088;47.946;2.532;2023-03-01T02:11:27;10.43;;;7.20;;
19854;SDS011;10088;47.946;2.532;2023-03-01T02:13:52;9.93;;;8.13;;
19854;SDS011;10088;47.946;2.532;2023-03-01T02:16:19;9.80;;;7.40;;
19854;SDS011;10088;47.946;2.532;2023-03-01T02:18:45;8.73;;;7.03;;
19854;SDS011;10088;47.946;2.532;2023-03-01T02:21:17;11.53;;;7.70;;
19854;SDS011;10088;47.946;2.532;2023-03-01T02:23:45;9.70;;;7.63;;
19854;SDS011;10088;47.946;2.532;2023-03-01T02:26:29;9.37;;;7.27;;
19854;SDS011;10088;47.946;2.532;2023-03-01T02:28:58;9.30;;;7.43;;
19854;SDS011;10088;47.946;2.532;2023-03-01T02:31:24;9.87;;;7.73;;
19854;SDS011;10088;47.946;2.532;2023-03-01T02:34:15;11.27;;;8.20;;
19854;SDS011;10088;47.946;2.532;2023-03-01T02:36:42;12.70;;;6.90;;
19854;SDS011;10088;47.946;2.532;2023-03-01T02:39:10;10.90;;;7.47;;
19854;SDS011;10088;47.946;2.532;2023-03-01T02:41:39;10.80;;;7.90;;
19854;SDS011;10088;47.946;2.532;2023-03-01T02:44:06;14.83;;;7.17;;
19854;SDS011;10088;47.946;2.532;2023-03-01T02:46:31;12.83;;;7.63;;
19854;SDS011;10088;47.946;2.532;2023-03-01T02:48:57;10.80;;;7.13;;
19854;SDS011;10088;47.946;2.532;2023-03-01T02:54:26;11.67;;;7.33;;
19854;SDS011;10088;47.946;2.532;2023-03-01T02:56:53;9.80;;;6.53;;
19854;SDS011;10088;47.946;2.532;2023-03-01T02:59:22;11.13;;;7.33;;
19854;SDS011;10088;47.946;2.532;2023-03-01T03:01:49;13.63;;;7.60;;
19854;SDS011;10088;47.946;2.532;2023-03-01T03:04:15;11.03;;;7.17;;
19854;SDS011;10088;47.946;2.532;2023-03-01T03:06:42;10.87;;;7.90;;
19854;SDS011;10088;47.946;2.532;2023-03-01T03:09:07;11.37;;;8.63;;
19854;SDS011;10088;47.946;2.532;2023-03-01T03:11:33;11.40;;;8.17;;
19854;SDS011;10088;47.946;2.532;2023-03-01T03:13:58;12.37;;;7.67;;
19854;SDS011;10088;47.946;2.532;2023-03-01T03:16:23;10.83;;;7.33;;
19854;SDS011;10088;47.946;2.532;2023-03-01T03:18:49;13.40;;;7.67;;
19854;SDS011;10088;47.946;2.532;2023-03-01T03:21:15;12.97;;;8.67;;
19854;SDS011;10088;47.946;2.532;2023-03-01T03:23:41;13.33;;;7.37;;
19854;SDS011;10088;47.946;2.532;2023-03-01T03:26:06;11.17;;;8.03;;
19854;SDS011;10088;47.946;2.532;2023-03-01T03:28:32;11.50;;;7.93;;
19854;SDS011;10088;47.946;2.532;2023-03-01T03:30:57;12.70;;;7.87;;
19854;SDS011;10088;47.946;2.532;2023-03-01T03:33:23;10.10;;;7.27;;
19854;SDS011;10088;47.946;2.532;2023-03-01T03:35:49;10.03;;;7.37;;
19854;SDS011;10088;47.946;2.532;2023-03-01T03:38:15;12.73;;;7.73;;
19854;SDS011;10088;47.946;2.532;2023-03-01T03:40:51;10.93;;;7.90;;
19854;SDS011;10088;47.946;2.532;2023-03-01T03:43:21;11.57;;;7.70;;
19854;SDS011;10088;47.946;2.532;2023-03-01T03:45:47;11.03;;;7.20;;
19854;SDS011;10088;47.946;2.532;2023-03-01T03:48:13;13.37;;;7.67;;
19854;SDS011;10088;47.946;2.532;2023-03-01T03:50:39;17.63;;;9.73;;
19854;SDS011;10088;47.946;2.532;2023-03-01T03:53:07;13.80;;;7.50;;
19854;SDS011;10088;47.946;2.532;2023-03-01T03:55:32;16.10;;;8.00;;
19854;SDS011;10088;47.946;2.532;2023-03-01T03:57:59;12.70;;;7.27;;
19854;SDS011;10088;47.946;2.532;2023-03-01T04:00:27;16.53;;;7.50;;
19854;SDS011;10088;47.946;2.532;2023-03-01T04:02:52;11.77;;;7.87;;
19854;SDS011;10088;47.946;2.532;2023-03-01T04:05:21;10.90;;;7.90;;
19854;SDS011;10088;47.946;2.532;2023-03-01T04:07:46;15.00;;;8.93;;
19854;SDS011;10088;47.946;2.532;2023-03-01T04:10:13;14.23;;;9.37;;
19854;SDS011;10088;47.946;2.532;2023-03-01T04:12:39;11.97;;;7.77;;
19854;SDS011;10088;47.946;2.532;2023-03-01T04:15:05;11.13;;;8.60;;
19854;SDS011;10088;47.946;2.532;2023-03-01T04:17:41;11.63;;;6.90;;
19854;SDS011;10088;47.946;2.532;2023-03-01T04:20:08;11.47;;;7.80;;
19854;SDS011;10088;47.946;2.532;2023-03-01T04:22:34;11.27;;;7.27;;
19854;SDS011;10088;47.946;2.532;2023-03-01T04:25:00;10.80;;;7.63;;
19854;SDS011;10088;47.946;2.532;2023-03-01T04:27:32;9.27;;;6.73;;
19854;SDS011;10088;47.946;2.532;2023-03-01T04:29:57;12.17;;;8.27;;
19854;SDS011;10088;47.946;2.532;2023-03-01T04:32:23;9.50;;;6.93;;
19854;SDS011;10088;47.946;2.532;2023-03-01T04:34:48;10.30;;;6.80;;
19854;SDS011;10088;47.946;2.532;2023-03-01T04:37:13;10.17;;;7.63;;
19854;SDS011;10088;47.946;2.532;2023-03-01T04:39:41;10.60;;;6.97;;
19854;SDS011;10088;47.946;2.532;2023-03-01T04:42:11;12.43;;;7.23;;
19854;SDS011;10088;47.946;2.532;2023-03-01T04:44:36;9.03;;;6.90;;
19854;SDS011;10088;47.946;2.532;2023-03-01T04:47:01;9.77;;;6.23;;
19854;SDS011;10088;47.946;2.532;2023-03-01T04:49:26;12.47;;;6.77;;
19854;SDS011;10088;47.946;2.532;2023-03-01T04:51:52;11.87;;;7.53;;
19854;SDS011;10088;47.946;2.532;2023-03-01T04:54:17;8.60;;;6.23;;
19854;SDS011;10088;47.946;2.532;2023-03-01T04:56:42;10.87;;;6.80;;
19854;SDS011;10088;47.946;2.532;2023-03-01T04:59:07;9.47;;;6.47;;
19854;SDS011;10088;47.946;2.532;2023-03-01T05:01:35;11.67;;;7.30;;
19854;SDS011;10088;47.946;2.532;2023-03-01T05:04:00;10.70;;;7.47;;
19854;SDS011;10088;47.946;2.532;2023-03-01T05:06:28;10.40;;;6.97;;
19854;SDS011;10088;47.946;2.532;2023-03-01T05:08:53;9.87;;;6.90;;
19854;SDS011;10088;47.946;2.532;2023-03-01T05:11:18;9.17;;;6.37;;
19854;SDS011;10088;47.946;2.532;2023-03-01T05:13:44;11.40;;;7.80;;
19854;SDS011;10088;47.946;2.532;2023-03-01T05:16:10;12.03;;;7.50;;
19854;SDS011;10088;47.946;2.532;2023-03-01T05:18:36;8.33;;;6.70;;
19854;SDS011;10088;47.946;2.532;2023-03-01T05:21:06;9.80;;;6.77;;
19854;SDS011;10088;47.946;2.532;2023-03-01T05:23:32;9.73;;;6.93;;
19854;SDS011;10088;47.946;2.532;2023-03-01T05:25:58;12.87;;;7.83;;
19854;SDS011;10088;47.946;2.532;2023-03-01T05:28:24;12.80;;;7.00;;
19854;SDS011;10088;47.946;2.532;2023-03-01T05:30:50;11.40;;;6.87;;
19854;SDS011;10088;47.946;2.532;2023-03-01T05:33:16;9.23;;;6.83;;
19854;SDS011;10088;47.946;2.532;2023-03-01T05:35:42;9.03;;;6.80;;
19854;SDS011;10088;47.946;2.532;2023-03-01T05:38:08;10.57;;;7.07;;
19854;SDS011;10088;47.946;2.532;2023-03-01T05:40:34;9.77;;;7.00;;
19854;SDS011;10088;47.946;2.532;2023-03-01T05:43:00;12.33;;;7.60;;
19854;SDS011;10088;47.946;2.532;2023-03-01T05:45:26;9.93;;;7.20;;
19854;SDS011;10088;47.946;2.532;2023-03-01T05:47:52;9.77;;;7.13;;
19854;SDS011;10088;47.946;2.532;2023-03-01T05:50:21;10.73;;;7.47;;
19854;SDS011;10088;47.946;2.532;2023-03-01T05:52:49;16.60;;;7.33;;
19854;SDS011;10088;47.946;2.532;2023-03-01T05:55:19;10.37;;;7.07;;
19854;SDS011;10088;47.946;2.532;2023-03-01T05:57:45;9.93;;;7.27;;
19854;SDS011;10088;47.946;2.532;2023-03-01T06:00:11;10.27;;;6.77;;
19854;SDS011;10088;47.946;2.532;2023-03-01T06:02:37;10.97;;;7.47;;
19854;SDS011;10088;47.946;2.532;2023-03-01T06:05:03;13.07;;;7.70;;
19854;SDS011;10088;47.946;2.532;2023-03-01T06:07:29;14.93;;;7.03;;
19854;SDS011;10088;47.946;2.532;2023-03-01T06:09:54;10.67;;;7.33;;
19854;SDS011;10088;47.946;2.532;2023-03-01T06:12:20;9.43;;;6.53;;
19854;SDS011;10088;47.946;2.532;2023-03-01T06:14:45;9.57;;;6.67;;
19854;SDS011;10088;47.946;2.532;2023-03-01T06:17:12;13.97;;;7.30;;
19854;SDS011;10088;47.946;2.532;2023-03-01T06:19:37;14.83;;;8.30;;
19854;SDS011;10088;47.946;2.532;2023-03-01T06:22:02;14.33;;;7.60;;
19854;SDS011;10088;47.946;2.532;2023-03-01T06:24:28;13.50;;;7.77;;
19854;SDS011;10088;47.946;2.532;2023-03-01T06:26:53;11.90;;;7.30;;
19854;SDS011;10088;47.946;2.532;2023-03-01T06:29:19;10.43;;;7.17;;
19854;SDS011;10088;47.946;2.532;2023-03-01T06:31:44;10.27;;;6.97;;
19854;SDS011;10088;47.946;2.532;2023-03-01T06:34:10;12.63;;;7.47;;
19854;SDS011;10088;47.946;2.532;2023-03-01T06:36:38;11.70;;;7.73;;
19854;SDS011;10088;47.946;2.532;2023-03-01T06:39:03;11.30;;;7.93;;
19854;SDS011;10088;47.946;2.532;2023-03-01T06:41:30;12.60;;;7.90;;
19854;SDS011;10088;47.946;2.532;2023-03-01T06:43:55;10.40;;;7.73;;
19854;SDS011;10088;47.946;2.532;2023-03-01T06:46:21;9.63;;;6.90;;
19854;SDS011;10088;47.946;2.532;2023-03-01T06:48:46;10.13;;;7.73;;
19854;SDS011;10088;47.946;2.532;2023-03-01T06:51:11;11.40;;;8.13;;
19854;SDS011;10088;47.946;2.532;2023-03-01T06:53:37;13.60;;;7.80;;
19854;SDS011;10088;47.946;2.532;2023-03-01T06:56:02;9.87;;;7.60;;
19854;SDS011;10088;47.946;2.532;2023-03-01T06:58:28;10.20;;;7.00;;
19854;SDS011;10088;47.946;2.532;2023-03-01T07:00:53;14.90;;;7.77;;
19854;SDS011;10088;47.946;2.532;2023-03-01T07:03:18;11.90;;;7.60;;
19854;SDS011;10088;47.946;2.532;2023-03-01T07:05:44;12.97;;;8.17;;
19854;SDS011;10088;47.946;2.532;2023-03-01T07:08:09;10.60;;;7.07;;
19854;SDS011;10088;47.946;2.532;2023-03-01T07:10:35;12.20;;;7.83;;
19854;SDS011;10088;47.946;2.532;2023-03-01T07:13:00;9.90;;;7.07;;
19854;SDS011;10088;47.946;2.532;2023-03-01T07:15:26;8.80;;;7.23;;
19854;SDS011;10088;47.946;2.532;2023-03-01T07:17:51;9.93;;;7.10;;
19854;SDS011;10088;47.946;2.532;2023-03-01T07:20:17;9.90;;;7.53;;
19854;SDS011;10088;47.946;2.532;2023-03-01T07:22:43;10.43;;;7.00;;
19854;SDS011;10088;47.946;2.532;2023-03-01T07:25:09;11.00;;;7.20;;
19854;SDS011;10088;47.946;2.532;2023-03-01T07:27:34;9.43;;;7.13;;
19854;SDS011;10088;47.946;2.532;2023-03-01T07:29:59;8.80;;;6.87;;
19854;SDS011;10088;47.946;2.532;2023-03-01T07:32:25;9.83;;;6.90;;
19854;SDS011;10088;47.946;2.532;2023-03-01T07:34:50;7.83;;;6.60;;
19854;SDS011;10088;47.946;2.532;2023-03-01T07:37:16;10.07;;;7.50;;
19854;SDS011;10088;47.946;2.532;2023-03-01T07:39:41;8.80;;;6.90;;
19854;SDS011;10088;47.946;2.532;2023-03-01T07:42:07;7.73;;;6.93;;
19854;SDS011;10088;47.946;2.532;2023-03-01T07:44:32;7.90;;;6.70;;
19854;SDS011;10088;47.946;2.532;2023-03-01T07:46:57;8.20;;;6.63;;
19854;SDS011;10088;47.946;2.532;2023-03-01T07:49:23;8.40;;;6.63;;
19854;SDS011;10088;47.946;2.532;2023-03-01T07:51:48;7.83;;;6.33;;
19854;SDS011;10088;47.946;2.532;2023-03-01T07:54:13;9.83;;;6.33;;
19854;SDS011;10088;47.946;2.532;2023-03-01T07:56:39;8.50;;;6.67;;
19854;SDS011;10088;47.946;2.532;2023-03-01T07:59:05;8.23;;;6.80;;
19854;SDS011;10088;47.946;2.532;2023-03-01T08:01:31;9.27;;;6.70;;
19854;SDS011;10088;47.946;2.532;2023-03-01T08:03:56;8.27;;;6.03;;
19854;SDS011;10088;47.946;2.532;2023-03-01T08:06:21;8.13;;;6.50;;
19854;SDS011;10088;47.946;2.532;2023-03-01T08:08:46;7.20;;;6.13;;
19854;SDS011;10088;47.946;2.532;2023-03-01T08:11:12;7.67;;;6.27;;
19854;SDS011;10088;47.946;2.532;2023-03-01T08:13:38;7.73;;;5.90;;
19854;SDS011;10088;47.946;2.532;2023-03-01T08:16:04;8.43;;;6.60;;
19854;SDS011;10088;47.946;2.532;2023-03-01T08:18:29;8.00;;;6.87;;
19854;SDS011;10088;47.946;2.532;2023-03-01T08:20:55;10.70;;;6.40;;
19854;SDS011;10088;47.946;2.532;2023-03-01T08:23:20;7.00;;;6.03;;
19854;SDS011;10088;47.946;2.532;2023-03-01T08:25:45;6.90;;;6.20;;
19854;SDS011;10088;47.946;2.532;2023-03-01T08:28:11;9.57;;;6.30;;
19854;SDS011;10088;47.946;2.532;2023-03-01T08:30:36;6.93;;;6.23;;
19854;SDS011;10088;47.946;2.532;2023-03-01T08:33:01;8.83;;;6.40;;
19854;SDS011;10088;47.946;2.532;2023-03-01T08:35:27;7.80;;;6.00;;
19854;SDS011;10088;47.946;2.532;2023-03-01T08:37:52;8.20;;;6.03;;
19854;SDS011;10088;47.946;2.532;2023-03-01T08:40:18;7.23;;;5.80;;
19854;SDS011;10088;47.946;2.532;2023-03-01T08:42:44;7.60;;;6.30;;
19854;SDS011;10088;47.946;2.532;2023-03-01T08:45:09;8.70;;;7.07;;
19854;SDS011;10088;47.946;2.532;2023-03-01T08:47:35;7.40;;;6.60;;
19854;SDS011;10088;47.946;2.532;2023-03-01T08:50:00;7.43;;;6.67;;
19854;SDS011;10088;47.946;2.532;2023-03-01T08:52:25;8.40;;;6.73;;
19854;SDS011;10088;47.946;2.532;2023-03-01T08:54:51;8.07;;;6.53;;
19854;SDS011;10088;47.946;2.532;2023-03-01T08:57:16;8.43;;;6.23;;
19854;SDS011;10088;47.946;2.532;2023-03-01T08:59:42;8.40;;;6.17;;
19854;SDS011;10088;47.946;2.532;2023-03-01T09:02:12;7.43;;;6.50;;
19854;SDS011;10088;47.946;2.532;2023-03-01T09:04:37;7.90;;;6.40;;
19854;SDS011;10088;47.946;2.532;2023-03-01T09:07:03;7.50;;;6.43;;
19854;SDS011;10088;47.946;2.532;2023-03-01T09:09:28;9.53;;;7.00;;
19854;SDS011;10088;47.946;2.532;2023-03-01T09:11:53;8.27;;;6.60;;
19854;SDS011;10088;47.946;2.532;2023-03-01T09:14:19;8.67;;;6.83;;
19854;SDS011;10088;47.946;2.532;2023-03-01T09:16:44;9.50;;;6.77;;
19854;SDS011;10088;47.946;2.532;2023-03-01T09:19:10;7.33;;;6.57;;
19854;SDS011;10088;47.946;2.532;2023-03-01T09:21:36;8.23;;;7.40;;
19854;SDS011;10088;47.946;2.532;2023-03-01T09:24:02;8.00;;;6.97;;
19854;SDS011;10088;47.946;2.532;2023-03-01T09:26:27;11.90;;;7.30;;
19854;SDS011;10088;47.946;2.532;2023-03-01T09:28:53;8.33;;;7.47;;
19854;SDS011;10088;47.946;2.532;2023-03-01T09:31:20;8.53;;;7.30;;
19854;SDS011;10088;47.946;2.532;2023-03-01T09:33:46;8.27;;;7.20;;
19854;SDS011;10088;47.946;2.532;2023-03-01T09:36:12;10.23;;;7.47;;
19854;SDS011;10088;47.946;2.532;2023-03-01T09:38:38;9.53;;;7.27;;
19854;SDS011;10088;47.946;2.532;2023-03-01T09:41:09;13.27;;;7.63;;
19854;SDS011;10088;47.946;2.532;2023-03-01T09:43:48;12.10;;;7.70;;
19854;SDS011;10088;47.946;2.532;2023-03-01T09:46:19;8.53;;;7.50;;
19854;SDS011;10088;47.946;2.532;2023-03-01T09:48:46;8.23;;;7.37;;
19854;SDS011;10088;47.946;2.532;2023-03-01T09:51:33;9.80;;;7.87;;
19854;SDS011;10088;47.946;2.532;2023-03-01T09:53:59;9.43;;;7.80;;
19854;SDS011;10088;47.946;2.532;2023-03-01T09:56:33;11.13;;;7.97;;
19854;SDS011;10088;47.946;2.532;2023-03-01T09:59:04;8.93;;;7.50;;
19854;SDS011;10088;47.946;2.532;2023-03-01T10:01:38;8.70;;;7.80;;
19854;SDS011;10088;47.946;2.532;2023-03-01T10:04:11;8.27;;;7.47;;
19854;SDS011;10088;47.946;2.532;2023-03-01T10:06:38;8.63;;;7.73;;
19854;SDS011;10088;47.946;2.532;2023-03-01T10:09:24;10.80;;;7.87;;
19854;SDS011;10088;47.946;2.532;2023-03-01T10:11:50;9.53;;;8.53;;
19854;SDS011;10088;47.946;2.532;2023-03-01T10:19:12;10.87;;;7.17;;
19854;SDS011;10088;47.946;2.532;2023-03-01T10:21:41;9.13;;;8.10;;
19854;SDS011;10088;47.946;2.532;2023-03-01T10:24:12;13.83;;;8.47;;
19854;SDS011;10088;47.946;2.532;2023-03-01T10:26:48;13.57;;;8.57;;
19854;SDS011;10088;47.946;2.532;2023-03-01T10:29:15;10.43;;;8.40;;
19854;SDS011;10088;47.946;2.532;2023-03-01T10:31:44;8.77;;;7.90;;
19854;SDS011;10088;47.946;2.532;2023-03-01T10:34:14;9.57;;;7.97;;
19854;SDS011;10088;47.946;2.532;2023-03-01T10:36:41;9.63;;;8.50;;
19854;SDS011;10088;47.946;2.532;2023-03-01T10:39:14;11.07;;;8.87;;
19854;SDS011;10088;47.946;2.532;2023-03-01T10:45:11;9.63;;;8.70;;
19854;SDS011;10088;47.946;2.532;2023-03-01T10:47:17;10.07;;;7.93;;
19854;SDS011;10088;47.946;2.532;2023-03-01T10:52:21;11.43;;;8.50;;
19854;SDS011;10088;47.946;2.532;2023-03-01T10:54:53;12.60;;;8.37;;
19854;SDS011;10088;47.946;2.532;2023-03-01T10:57:30;12.47;;;8.80;;
19854;SDS011;10088;47.946;2.532;2023-03-01T11:00:18;12.00;;;9.17;;
19854;SDS011;10088;47.946;2.532;2023-03-01T11:02:49;10.67;;;8.80;;
19854;SDS011;10088;47.946;2.532;2023-03-01T11:05:21;10.57;;;9.17;;
19854;SDS011;10088;47.946;2.532;2023-03-01T11:07:52;10.10;;;8.83;;
19854;SDS011;10088;47.946;2.532;2023-03-01T11:10:24;11.10;;;9.17;;
19854;SDS011;10088;47.946;2.532;2023-03-01T11:12:50;10.90;;;9.40;;
19854;SDS011;10088;47.946;2.532;2023-03-01T11:15:26;12.47;;;9.17;;
19854;SDS011;10088;47.946;2.532;2023-03-01T11:17:51;9.80;;;8.77;;
19854;SDS011;10088;47.946;2.532;2023-03-01T11:20:26;11.13;;;9.07;;
19854;SDS011;10088;47.946;2.532;2023-03-01T11:22:56;10.27;;;9.03;;
19854;SDS011;10088;47.946;2.532;2023-03-01T11:25:27;11.70;;;10.47;;
19854;SDS011;10088;47.946;2.532;2023-03-01T11:27:54;11.73;;;9.57;;
19854;SDS011;10088;47.946;2.532;2023-03-01T11:30:21;11.63;;;9.27;;
19854;SDS011;10088;47.946;2.532;2023-03-01T11:32:52;11.70;;;9.97;;
19854;SDS011;10088;47.946;2.532;2023-03-01T11:35:27;11.00;;;9.90;;
19854;SDS011;10088;47.946;2.532;2023-03-01T11:45:25;12.20;;;9.87;;
19854;SDS011;10088;47.946;2.532;2023-03-01T12:10:44;12.83;;;10.87;;
19854;SDS011;10088;47.946;2.532;2023-03-01T12:13:34;13.03;;;10.17;;
19854;SDS011;10088;47.946;2.532;2023-03-01T12:16:13;12.93;;;10.57;;
19854;SDS011;10088;47.946;2.532;2023-03-01T12:18:45;11.37;;;9.87;;
19854;SDS011;10088;47.946;2.532;2023-03-01T12:21:38;12.97;;;10.30;;
19854;SDS011;10088;47.946;2.532;2023-03-01T12:26:35;13.87;;;10.37;;
19854;SDS011;10088;47.946;2.532;2023-03-01T12:29:19;14.73;;;10.70;;
19854;SDS011;10088;47.946;2.532;2023-03-01T12:37:27;11.60;;;10.17;;
19854;SDS011;10088;47.946;2.532;2023-03-01T12:45:30;11.33;;;10.13;;
19854;SDS011;10088;47.946;2.532;2023-03-01T12:50:37;14.50;;;11.80;;
19854;SDS011;10088;47.946;2.532;2023-03-01T12:53:04;12.17;;;10.87;;
19854;SDS011;10088;47.946;2.532;2023-03-01T13:03:04;13.30;;;11.67;;
19854;SDS011;10088;47.946;2.532;2023-03-01T13:05:43;11.47;;;10.23;;
19854;SDS011;10088;47.946;2.532;2023-03-01T13:08:19;13.40;;;11.27;;
19854;SDS011;10088;47.946;2.532;2023-03-01T13:10:49;11.07;;;9.97;;
19854;SDS011;10088;47.946;2.532;2023-03-01T13:13:22;12.23;;;10.33;;
19854;SDS011;10088;47.946;2.532;2023-03-01T13:15:48;13.90;;;11.23;;
19854;SDS011;10088;47.946;2.532;2023-03-01T13:20:48;12.97;;;10.93;;
19854;SDS011;10088;47.946;2.532;2023-03-01T13:31:08;13.23;;;11.07;;
19854;SDS011;10088;47.946;2.532;2023-03-01T13:33:44;13.73;;;10.90;;
19854;SDS011;10088;47.946;2.532;2023-03-01T13:36:10;15.37;;;12.07;;
19854;SDS011;10088;47.946;2.532;2023-03-01T13:41:03;12.77;;;11.27;;
19854;SDS011;10088;47.946;2.532;2023-03-01T13:43:34;14.90;;;11.07;;
19854;SDS011;10088;47.946;2.532;2023-03-01T13:46:00;11.80;;;10.60;;
19854;SDS011;10088;47.946;2.532;2023-03-01T13:48:27;12.37;;;11.07;;
19854;SDS011;10088;47.946;2.532;2023-03-01T13:50:59;12.20;;;11.00;;
19854;SDS011;10088;47.946;2.532;2023-03-01T13:53:26;11.03;;;9.93;;
19854;SDS011;10088;47.946;2.532;2023-03-01T13:55:58;14.53;;;11.10;;
19854;SDS011;10088;47.946;2.532;2023-03-01T13:58:29;13.33;;;10.47;;
19854;SDS011;10088;47.946;2.532;2023-03-01T14:03:27;11.93;;;10.70;;
19854;SDS011;10088;47.946;2.532;2023-03-01T14:08:25;12.03;;;10.83;;
19854;SDS011;10088;47.946;2.532;2023-03-01T14:21:31;13.07;;;11.73;;
19854;SDS011;10088;47.946;2.532;2023-03-01T14:23:57;13.33;;;11.03;;
19854;SDS011;10088;47.946;2.532;2023-03-01T14:26:23;12.90;;;11.60;;
19854;SDS011;10088;47.946;2.532;2023-03-01T14:28:49;12.17;;;11.00;;
19854;SDS011;10088;47.946;2.532;2023-03-01T14:31:36;13.37;;;11.93;;
19854;SDS011;10088;47.946;2.532;2023-03-01T14:34:00;12.73;;;11.43;;
19854;SDS011;10088;47.946;2.532;2023-03-01T14:36:27;12.87;;;11.47;;
19854;SDS011;10088;47.946;2.532;2023-03-01T14:38:52;12.97;;;11.57;;
19854;SDS011;10088;47.946;2.532;2023-03-01T14:41:20;13.27;;;11.90;;
19854;SDS011;10088;47.946;2.532;2023-03-01T14:43:53;12.70;;;11.17;;
19854;SDS011;10088;47.946;2.532;2023-03-01T14:46:23;12.43;;;11.13;;
19854;SDS011;10088;47.946;2.532;2023-03-01T14:48:53;13.17;;;11.87;;
19854;SDS011;10088;47.946;2.532;2023-03-01T14:51:19;14.07;;;11.40;;
19854;SDS011;10088;47.946;2.532;2023-03-01T14:53:44;13.17;;;11.90;;
19854;SDS011;10088;47.946;2.532;2023-03-01T14:56:14;13.70;;;12.30;;
19854;SDS011;10088;47.946;2.532;2023-03-01T14:58:39;13.37;;;11.67;;
19854;SDS011;10088;47.946;2.532;2023-03-01T15:01:04;12.60;;;11.30;;
19854;SDS011;10088;47.946;2.532;2023-03-01T15:05:55;14.53;;;13.03;;
19854;SDS011;10088;47.946;2.532;2023-03-01T15:08:22;13.33;;;11.93;;
19854;SDS011;10088;47.946;2.532;2023-03-01T15:10:55;13.47;;;11.67;;
19854;SDS011;10088;47.946;2.532;2023-03-01T15:13:22;14.13;;;12.63;;
19854;SDS011;10088;47.946;2.532;2023-03-01T15:15:47;12.27;;;10.97;;
19854;SDS011;10088;47.946;2.532;2023-03-01T15:20:41;13.37;;;11.93;;
19854;SDS011;10088;47.946;2.532;2023-03-01T15:23:13;13.20;;;11.50;;
19854;SDS011;10088;47.946;2.532;2023-03-01T15:25:43;12.80;;;11.43;;
19854;SDS011;10088;47.946;2.532;2023-03-01T15:28:12;14.20;;;12.10;;
19854;SDS011;10088;47.946;2.532;2023-03-01T15:30:43;13.83;;;11.93;;
19854;SDS011;10088;47.946;2.532;2023-03-01T15:35:47;13.07;;;11.63;;
19854;SDS011;10088;47.946;2.532;2023-03-01T15:41:00;14.47;;;12.97;;
19854;SDS011;10088;47.946;2.532;2023-03-01T15:46:03;13.90;;;12.40;;
19854;SDS011;10088;47.946;2.532;2023-03-01T15:48:29;15.83;;;13.77;;
19854;SDS011;10088;47.946;2.532;2023-03-01T15:50:55;15.00;;;12.77;;
19854;SDS011;10088;47.946;2.532;2023-03-01T15:53:21;14.37;;;12.93;;
19854;SDS011;10088;47.946;2.532;2023-03-01T15:55:47;15.17;;;13.63;;
19854;SDS011;10088;47.946;2.532;2023-03-01T16:00:40;17.87;;;13.60;;
19854;SDS011;10088;47.946;2.532;2023-03-01T16:03:06;15.80;;;14.20;;
19854;SDS011;10088;47.946;2.532;2023-03-01T16:05:34;16.27;;;14.53;;
19854;SDS011;10088;47.946;2.532;2023-03-01T16:08:00;16.53;;;13.50;;
19854;SDS011;10088;47.946;2.532;2023-03-01T16:10:25;14.40;;;12.97;;
19854;SDS011;10088;47.946;2.532;2023-03-01T16:12:51;13.70;;;12.30;;
19854;SDS011;10088;47.946;2.532;2023-03-01T16:15:30;17.60;;;13.87;;
19854;SDS011;10088;47.946;2.532;2023-03-01T16:17:56;14.53;;;12.10;;
19854;SDS011;10088;47.946;2.532;2023-03-01T16:20:23;14.13;;;12.60;;
19854;SDS011;10088;47.946;2.532;2023-03-01T16:22:49;15.07;;;12.83;;
19854;SDS011;10088;47.946;2.532;2023-03-01T16:25:15;14.40;;;12.63;;
19854;SDS011;10088;47.946;2.532;2023-03-01T16:27:42;14.00;;;12.60;;
19854;SDS011;10088;47.946;2.532;2023-03-01T16:30:07;14.23;;;12.40;;
19854;SDS011;10088;47.946;2.532;2023-03-01T16:32:37;15.80;;;13.13;;